LYBE/BEG METAR and TAF weather

Enter ICAO airport designator
Station Type Date Time Source
LYBE METAR 2023/02/04 21:30 UTC NOAA

LYBE 042130Z 34019KT CAVOK 00/M07 Q1028 NOSIG


Station Type Date Time Source
LYBE Decoded METAR 2023/02/04 21:30 UTC NOAA

Beograd / Surcin, Serbia and Montenegro (LYBE) 44-49N 020-17E 99M
Feb 04, 2023 - 04:30 PM EST / 2023.02.04 2130 UTC
Wind: from the NNW (340 degrees) at 22 MPH (19 KT):0
Visibility: greater than 7 mile(s):0
Temperature: 32 F (0 C)
Windchill: 19 F (-7 C):1
Dew Point: 19 F (-7 C)
Relative Humidity: 59%
Pressure (altimeter): 30.36 in. Hg (1028 hPa)
ob: LYBE 042130Z 34019KT CAVOK 00/M07 Q1028 NOSIG
cycle: 21

Station Type Date Time Source
LYBE TAF 2023/02/04 18:21 UTC NOAA

TAF LYBE 041700Z 0418/0518 34016KT 9999 SCT040 TX01/0418Z TNM04/0506Z
TEMPO 0418/0424 34020G30KT

Example: see airport list